createdAt,value
2022-12-04T00:04:21.002Z,18.87
2022-12-04T00:09:24.415Z,18.81
2022-12-04T00:14:27.892Z,18.75
2022-12-04T00:19:31.273Z,18.69
2022-12-04T00:24:35.171Z,18.64
2022-12-04T00:29:38.583Z,18.59
2022-12-04T00:34:41.997Z,18.54
2022-12-04T00:39:45.516Z,18.50
2022-12-04T00:44:48.928Z,18.45
2022-12-04T00:49:52.521Z,18.39
2022-12-04T00:54:56.174Z,18.34
2022-12-04T01:00:00.349Z,18.30
2022-12-04T01:05:04.251Z,18.26
2022-12-04T01:10:12.151Z,18.22
2022-12-04T01:15:16.098Z,18.17
2022-12-04T01:20:20.161Z,18.13
2022-12-04T01:25:23.544Z,18.09
2022-12-04T01:30:26.943Z,18.04
2022-12-04T01:35:30.717Z,17.99
2022-12-04T01:40:34.333Z,17.95
2022-12-04T01:45:41.543Z,17.91
2022-12-04T01:50:46.084Z,17.86
2022-12-04T01:55:50.124Z,17.82
2022-12-04T02:00:58.514Z,17.77
2022-12-04T02:06:02.544Z,17.73
2022-12-04T02:11:05.817Z,17.69
2022-12-04T02:16:35.635Z,17.65
2022-12-04T02:21:47.184Z,17.61
2022-12-04T02:26:56.586Z,17.57
2022-12-04T02:32:23.446Z,17.53
2022-12-04T02:37:41.336Z,17.49
2022-12-04T02:43:05.807Z,17.46
2022-12-04T02:48:09.433Z,17.41
2022-12-04T02:53:18.067Z,17.36
2022-12-04T02:58:27.605Z,17.33
2022-12-04T03:03:33.808Z,17.28
2022-12-04T03:08:48.092Z,17.25
2022-12-04T03:14:00.297Z,17.22
2022-12-04T03:19:16.966Z,17.19
2022-12-04T03:24:27.086Z,17.16
2022-12-04T03:29:43.720Z,17.13
2022-12-04T03:34:57.253Z,17.10
2022-12-04T03:40:15.628Z,17.06
2022-12-04T03:45:37.454Z,17.03
2022-12-04T03:50:50.719Z,16.99
2022-12-04T03:56:10.355Z,16.96
2022-12-04T04:01:17.998Z,16.93
2022-12-04T04:06:26.344Z,16.91
2022-12-04T04:11:38.674Z,16.88
2022-12-04T04:17:08.331Z,16.84
2022-12-04T04:22:30.932Z,16.81
2022-12-04T04:27:34.331Z,16.78
2022-12-04T04:32:49.733Z,16.76
2022-12-04T04:38:08.559Z,16.72
2022-12-04T04:43:32.967Z,16.69
2022-12-04T04:48:51.350Z,16.66
2022-12-04T04:53:58.582Z,16.64
2022-12-04T04:59:01.952Z,16.62
2022-12-04T05:04:06.817Z,16.60
2022-12-04T05:09:10.179Z,16.56
2022-12-04T05:14:13.572Z,16.54
2022-12-04T05:19:35.478Z,16.53
2022-12-04T05:24:38.976Z,16.54
2022-12-04T05:29:42.351Z,16.58
2022-12-04T05:34:50.931Z,16.63
2022-12-04T05:39:54.756Z,16.71
2022-12-04T05:44:58.585Z,16.80
2022-12-04T05:50:01.937Z,16.91
2022-12-04T05:55:06.142Z,17.05
2022-12-04T06:00:10.176Z,17.19
2022-12-04T06:05:16.988Z,17.31
2022-12-04T06:10:20.367Z,17.43
2022-12-04T06:15:24.543Z,17.54
2022-12-04T06:20:28.439Z,17.65
2022-12-04T06:25:31.943Z,17.75
2022-12-04T06:30:35.335Z,17.83
2022-12-04T06:35:38.733Z,17.90
2022-12-04T06:40:42.064Z,17.99
2022-12-04T06:45:45.599Z,18.07
2022-12-04T06:50:49.071Z,18.14
2022-12-04T06:55:52.421Z,18.23
2022-12-04T07:00:57.259Z,18.30
2022-12-04T07:06:20.047Z,18.37
2022-12-04T07:11:24.118Z,18.42
2022-12-04T07:16:29.157Z,18.46
2022-12-04T07:21:33.579Z,18.53
2022-12-04T07:26:37.289Z,18.57
2022-12-04T07:31:41.035Z,18.59
2022-12-04T07:36:44.448Z,18.65
2022-12-04T07:41:47.795Z,18.71
2022-12-04T07:46:51.220Z,18.74
2022-12-04T07:51:54.617Z,18.80
2022-12-04T07:56:58.503Z,18.82
2022-12-04T08:02:01.980Z,18.88
2022-12-04T08:07:05.478Z,18.90
2022-12-04T08:12:08.983Z,18.93
2022-12-04T08:17:12.508Z,18.97
2022-12-04T08:22:20.353Z,19.02
2022-12-04T08:27:26.833Z,19.05
2022-12-04T08:32:30.211Z,19.06
2022-12-04T08:37:33.669Z,19.03
2022-12-04T08:42:37.013Z,18.99
2022-12-04T08:47:40.377Z,18.98
2022-12-04T08:52:43.777Z,18.98
2022-12-04T08:57:47.157Z,18.98
2022-12-04T09:02:50.590Z,18.98
2022-12-04T09:07:54.013Z,18.99
2022-12-04T09:12:57.490Z,19.04
2022-12-04T09:18:01.822Z,19.09
2022-12-04T09:23:06.091Z,19.14
2022-12-04T09:28:09.491Z,19.21
2022-12-04T09:33:13.193Z,19.28
2022-12-04T09:38:16.524Z,19.34
2022-12-04T09:43:36.712Z,19.41
2022-12-04T09:48:43.292Z,19.47
2022-12-04T09:53:56.643Z,19.50
2022-12-04T09:59:17.304Z,19.56
2022-12-04T10:04:20.852Z,19.61
2022-12-04T10:09:40.420Z,19.63
2022-12-04T10:15:05.811Z,19.71
2022-12-04T10:20:45.987Z,19.75
2022-12-04T10:25:52.311Z,19.74
2022-12-04T10:30:59.923Z,19.70
2022-12-04T10:36:04.127Z,19.67
2022-12-04T10:41:18.164Z,19.63
2022-12-04T10:46:23.928Z,19.61
2022-12-04T10:51:29.337Z,19.61
2022-12-04T10:56:32.705Z,19.61
2022-12-04T11:01:36.223Z,19.60
2022-12-04T11:06:39.989Z,19.61
2022-12-04T11:11:43.357Z,19.62
2022-12-04T11:16:50.248Z,19.65
2022-12-04T11:21:56.383Z,19.63
2022-12-04T11:27:00.691Z,19.61
2022-12-04T11:32:08.017Z,19.59
2022-12-04T11:37:22.679Z,19.58
2022-12-04T11:42:29.608Z,19.60
2022-12-04T11:47:34.010Z,19.62
2022-12-04T11:52:52.642Z,19.65
2022-12-04T11:58:18.024Z,19.70
2022-12-04T12:03:39.009Z,19.75
2022-12-04T12:08:42.462Z,19.76
2022-12-04T12:14:05.721Z,19.75
2022-12-04T12:19:17.793Z,19.76
2022-12-04T12:24:32.465Z,19.76
2022-12-04T12:29:51.220Z,19.75
2022-12-04T12:34:55.644Z,19.77
2022-12-04T12:39:59.350Z,19.79
2022-12-04T12:45:12.228Z,19.82
2022-12-04T12:50:44.995Z,19.84
2022-12-04T12:56:51.576Z,19.89
2022-12-04T13:02:01.120Z,19.87
2022-12-04T13:07:14.672Z,19.88
2022-12-04T13:12:20.717Z,19.88
2022-12-04T13:17:38.719Z,19.87
2022-12-04T13:23:20.025Z,19.86
2022-12-04T13:28:49.365Z,19.85
2022-12-04T13:34:17.321Z,19.83
2022-12-04T13:39:54.866Z,19.84
2022-12-04T13:45:03.238Z,19.86
2022-12-04T13:50:28.535Z,19.89
2022-12-04T13:55:40.242Z,19.90
2022-12-04T14:00:44.685Z,19.90
2022-12-04T14:05:48.457Z,19.92
2022-12-04T14:11:04.109Z,19.95
2022-12-04T14:16:16.766Z,19.96
2022-12-04T14:21:20.240Z,19.96
2022-12-04T14:27:09.992Z,19.96
2022-12-04T14:31:55.435Z,20.00
2022-12-04T14:37:00.241Z,20.02
2022-12-04T14:42:14.551Z,20.06
2022-12-04T14:47:42.084Z,20.08
2022-12-04T14:53:11.774Z,20.06
2022-12-04T14:58:36.274Z,20.05
2022-12-04T15:03:45.449Z,20.05
2022-12-04T15:09:16.863Z,20.06
2022-12-04T15:14:20.157Z,20.06
2022-12-04T15:19:23.449Z,20.07
2022-12-04T15:24:27.729Z,20.08
2022-12-04T15:29:45.669Z,20.09
2022-12-04T15:35:09.418Z,20.11
2022-12-04T15:40:31.484Z,20.13
2022-12-04T15:45:38.054Z,20.13
2022-12-04T15:50:42.437Z,20.14
2022-12-04T15:55:55.515Z,20.15
2022-12-04T16:01:06.646Z,20.15
2022-12-04T16:06:20.816Z,20.16
2022-12-04T16:11:30.587Z,20.19
2022-12-04T16:16:35.431Z,20.18
2022-12-04T16:21:38.828Z,20.20
2022-12-04T16:26:42.452Z,20.22
2022-12-04T16:31:46.375Z,20.22
2022-12-04T16:36:50.085Z,20.23
2022-12-04T16:41:53.526Z,20.23
2022-12-04T16:46:56.959Z,20.26
2022-12-04T16:52:00.355Z,20.28
2022-12-04T16:57:04.207Z,20.29
2022-12-04T17:02:16.591Z,20.29
2022-12-04T17:07:20.689Z,20.29
2022-12-04T17:12:24.004Z,20.28
2022-12-04T17:17:27.387Z,20.29
2022-12-04T17:22:31.366Z,20.31
2022-12-04T17:27:35.454Z,20.33
2022-12-04T17:32:38.799Z,20.33
2022-12-04T17:37:42.188Z,20.32
2022-12-04T17:42:45.542Z,20.32
2022-12-04T17:47:48.829Z,20.33
2022-12-04T17:52:52.361Z,20.33
2022-12-04T17:57:55.734Z,20.34
2022-12-04T18:02:59.150Z,20.38
2022-12-04T18:08:02.624Z,20.38
2022-12-04T18:13:06.092Z,20.36
2022-12-04T18:18:09.662Z,20.35
2022-12-04T18:25:59.762Z,21.23
2022-12-04T18:31:05.415Z,21.45
2022-12-04T18:36:16.591Z,21.59
2022-12-04T18:41:20.093Z,21.71
2022-12-04T18:46:24.897Z,21.78
2022-12-04T18:51:33.070Z,21.83
2022-12-04T18:56:36.909Z,21.86
2022-12-04T19:01:41.840Z,21.90
2022-12-04T19:06:50.699Z,21.97
2022-12-04T19:11:54.197Z,22.02
2022-12-04T19:16:57.757Z,22.11
2022-12-04T19:22:02.601Z,22.16
2022-12-04T19:27:12.355Z,22.19
2022-12-04T19:32:15.891Z,22.22
2022-12-04T19:37:19.394Z,22.23
2022-12-04T19:42:22.831Z,22.26
2022-12-04T19:47:26.755Z,22.28
2022-12-04T19:52:30.145Z,22.38
2022-12-04T19:57:33.589Z,22.39
2022-12-04T20:02:37.253Z,22.42
2022-12-04T20:07:40.890Z,22.42
2022-12-04T20:12:44.437Z,22.43
2022-12-04T20:17:47.851Z,22.43
2022-12-04T20:22:51.375Z,22.43
2022-12-04T20:27:54.935Z,22.46
2022-12-04T20:32:58.425Z,22.50
2022-12-04T20:38:03.529Z,22.52
2022-12-04T20:43:07.803Z,22.54
2022-12-04T20:48:13.577Z,22.56
2022-12-04T20:53:18.084Z,22.57
2022-12-04T20:58:23.554Z,22.58
2022-12-04T21:03:29.368Z,22.58
2022-12-04T21:08:52.662Z,22.58
2022-12-04T21:14:25.693Z,22.55
2022-12-04T21:19:30.291Z,22.50
2022-12-04T21:24:38.896Z,22.43
2022-12-04T21:29:43.858Z,22.35
2022-12-04T21:34:48.453Z,22.23
2022-12-04T21:39:51.942Z,22.15
2022-12-04T21:44:55.378Z,22.06
2022-12-04T21:50:00.010Z,21.95
2022-12-04T21:55:05.361Z,21.85
2022-12-04T22:00:09.261Z,21.75
2022-12-04T22:05:12.540Z,21.63
2022-12-04T22:10:15.868Z,21.44
2022-12-04T22:15:19.376Z,21.33
2022-12-04T22:20:23.814Z,21.25
2022-12-04T22:25:29.677Z,21.16
2022-12-04T22:30:34.775Z,21.04
2022-12-04T22:35:38.162Z,20.91
2022-12-04T22:45:39.042Z,20.90
2022-12-04T22:50:42.403Z,21.02
2022-12-04T22:55:45.774Z,20.99
2022-12-04T23:00:49.240Z,20.96
2022-12-04T23:05:52.761Z,20.92
2022-12-04T23:10:56.169Z,20.88
2022-12-04T23:16:02.454Z,20.83
2022-12-04T23:21:10.830Z,20.77
2022-12-04T23:26:17.111Z,20.72
2022-12-04T23:31:21.004Z,20.66
2022-12-04T23:36:25.175Z,20.59
2022-12-04T23:41:31.611Z,20.52
2022-12-04T23:46:34.975Z,20.44
2022-12-04T23:51:38.394Z,20.37
2022-12-04T23:56:41.888Z,20.29
